createdAt,value
2019-01-13T00:00:02.949Z,1001.45
2019-01-13T00:01:08.455Z,1001.50
2019-01-13T00:02:13.960Z,1001.51
2019-01-13T00:03:19.465Z,1001.48
2019-01-13T00:04:25.980Z,1001.53
2019-01-13T00:05:30.488Z,1001.50
2019-01-13T00:06:35.995Z,1001.48
2019-01-13T00:07:41.524Z,1001.49
2019-01-13T00:08:47.008Z,1001.49
2019-01-13T00:09:52.521Z,1001.42
2019-01-13T00:10:59.035Z,1001.46
2019-01-13T00:12:03.539Z,1001.43
2019-01-13T00:13:09.046Z,1001.43
2019-01-13T00:14:14.552Z,1001.42
2019-01-13T00:15:20.064Z,1001.48
2019-01-13T00:16:25.626Z,1001.43
2019-01-13T00:17:32.093Z,1001.47
2019-01-13T00:18:36.596Z,1001.49
2019-01-13T00:19:42.095Z,1001.50
2019-01-13T00:20:47.599Z,1001.51
2019-01-13T00:21:53.117Z,1001.53
2019-01-13T00:22:58.630Z,1001.47
2019-01-13T00:24:05.142Z,1001.47
2019-01-13T00:25:09.636Z,1001.50
2019-01-13T00:26:15.147Z,1001.45
2019-01-13T00:27:20.660Z,1001.46
2019-01-13T00:28:26.164Z,1001.46
2019-01-13T00:29:31.676Z,1001.45
2019-01-13T00:30:38.188Z,1001.49
2019-01-13T00:31:42.688Z,1001.46
2019-01-13T00:32:48.208Z,1001.49
2019-01-13T00:33:53.709Z,1001.46
2019-01-13T00:34:59.223Z,1001.56
2019-01-13T00:36:04.723Z,1001.53
2019-01-13T00:37:11.243Z,1001.53
2019-01-13T00:38:15.757Z,1001.49
2019-01-13T00:39:21.248Z,1001.46
2019-01-13T00:40:26.764Z,1001.47
2019-01-13T00:41:33.815Z,1001.56
2019-01-13T00:42:37.779Z,1001.55
2019-01-13T00:43:44.293Z,1001.50
2019-01-13T00:44:48.790Z,1001.49
2019-01-13T00:45:54.298Z,1001.52
2019-01-13T00:46:59.810Z,1001.53
2019-01-13T00:48:05.318Z,1001.52
2019-01-13T00:49:10.839Z,1001.50
2019-01-13T00:50:17.344Z,1001.50
2019-01-13T00:51:21.840Z,1001.50
2019-01-13T00:52:27.349Z,1001.49
2019-01-13T00:53:32.861Z,1001.46
2019-01-13T00:54:38.370Z,1001.36
2019-01-13T00:55:43.880Z,1001.44
2019-01-13T00:56:50.392Z,1001.38
2019-01-13T00:57:54.896Z,1001.37
2019-01-13T00:59:00.405Z,1001.29
2019-01-13T01:00:05.909Z,1001.28
2019-01-13T01:01:11.434Z,1001.28
2019-01-13T01:02:16.932Z,1001.24
2019-01-13T01:03:23.448Z,1001.22
2019-01-13T01:04:27.955Z,1001.24
2019-01-13T01:05:33.456Z,1001.23
2019-01-13T01:06:38.964Z,1001.25
2019-01-13T01:07:44.474Z,1001.22
2019-01-13T01:08:49.987Z,1001.20
2019-01-13T01:09:56.498Z,1001.14
2019-01-13T01:11:00.999Z,1001.16
2019-01-13T01:12:06.520Z,1001.18
2019-01-13T01:13:12.016Z,1001.16
2019-01-13T01:14:17.531Z,1001.15
2019-01-13T01:15:23.035Z,1001.16
2019-01-13T01:16:29.551Z,1001.15
2019-01-13T01:17:34.059Z,1001.14
2019-01-13T01:18:39.568Z,1001.13
2019-01-13T01:19:45.072Z,1001.13
2019-01-13T01:20:50.577Z,1001.14
2019-01-13T01:21:56.092Z,1001.09
2019-01-13T01:23:02.611Z,1001.14
2019-01-13T01:24:07.101Z,1001.12
2019-01-13T01:25:12.611Z,1001.10
2019-01-13T01:26:18.117Z,1001.15
2019-01-13T01:27:23.627Z,1001.15
2019-01-13T01:28:29.137Z,1001.14
2019-01-13T01:29:35.665Z,1001.11
2019-01-13T01:30:40.161Z,1001.15
2019-01-13T01:31:45.671Z,1001.12
2019-01-13T01:32:51.174Z,1001.07
2019-01-13T01:33:56.682Z,1001.16
2019-01-13T01:35:02.199Z,1001.11
2019-01-13T01:36:08.710Z,1001.10
2019-01-13T01:37:13.207Z,1001.08
2019-01-13T01:38:18.716Z,1001.05
2019-01-13T01:39:24.224Z,1001.00
2019-01-13T01:40:29.729Z,1001.02
2019-01-13T01:41:35.240Z,1001.09
2019-01-13T01:42:41.758Z,1001.10
2019-01-13T01:43:46.261Z,1001.09
2019-01-13T01:44:51.768Z,1001.11
2019-01-13T01:45:57.279Z,1001.09
2019-01-13T01:47:02.792Z,1001.02
2019-01-13T01:48:08.295Z,1001.04
2019-01-13T01:49:14.816Z,1001.01
2019-01-13T01:50:19.318Z,1001.03
2019-01-13T01:51:24.830Z,1001.06
2019-01-13T01:52:30.331Z,1001.03
2019-01-13T01:53:35.847Z,1001.04
2019-01-13T01:54:41.348Z,1001.00
2019-01-13T01:55:47.873Z,1001.01
2019-01-13T01:56:52.364Z,1000.99
2019-01-13T01:57:57.883Z,1000.96
2019-01-13T01:59:03.385Z,1000.98
2019-01-13T02:00:08.898Z,1000.91
2019-01-13T02:01:14.399Z,1000.85
2019-01-13T02:02:20.921Z,1000.90
2019-01-13T02:03:25.415Z,1000.94
2019-01-13T02:04:30.974Z,1000.92
2019-01-13T02:05:36.439Z,1000.92
2019-01-13T02:06:41.960Z,1000.90
2019-01-13T02:07:47.520Z,1000.86
2019-01-13T02:08:53.969Z,1000.87
2019-01-13T02:09:58.469Z,1000.78
2019-01-13T02:11:03.983Z,1000.71
2019-01-13T02:12:09.493Z,1000.61
2019-01-13T02:13:15.010Z,1000.65
2019-01-13T02:14:20.516Z,1000.66
2019-01-13T02:15:27.023Z,1000.65
2019-01-13T02:16:31.523Z,1000.60
2019-01-13T02:17:37.034Z,1000.54
2019-01-13T02:18:42.543Z,1000.46
2019-01-13T02:19:48.050Z,1000.46
2019-01-13T02:20:53.556Z,1000.49
2019-01-13T02:22:00.094Z,1000.44
2019-01-13T02:23:04.577Z,1000.39
2019-01-13T02:24:10.089Z,1000.40
2019-01-13T02:25:15.592Z,1000.39
2019-01-13T02:26:21.101Z,1000.43
2019-01-13T02:27:26.609Z,1000.45
2019-01-13T02:28:33.135Z,1000.44
2019-01-13T02:29:37.629Z,1000.43
2019-01-13T02:30:49.070Z,1000.44
2019-01-13T02:31:48.652Z,1000.40
2019-01-13T02:32:54.159Z,1000.34
2019-01-13T02:33:59.668Z,1000.30
2019-01-13T02:35:06.174Z,1000.32
2019-01-13T02:36:10.700Z,1000.30
2019-01-13T02:37:16.188Z,1000.23
2019-01-13T02:38:21.702Z,1000.22
2019-01-13T02:39:27.226Z,1000.28
2019-01-13T02:40:32.717Z,1000.27
2019-01-13T02:41:39.241Z,1000.28
2019-01-13T02:42:43.735Z,1000.34
2019-01-13T02:43:49.244Z,1000.39
2019-01-13T02:44:54.755Z,1000.43
2019-01-13T02:46:00.261Z,1000.43
2019-01-13T02:47:05.772Z,1000.43
2019-01-13T02:48:12.288Z,1000.44
2019-01-13T02:49:16.799Z,1000.41
2019-01-13T02:50:22.306Z,1000.41
2019-01-13T02:51:28.464Z,1000.35
2019-01-13T02:52:33.318Z,1000.33
2019-01-13T02:53:38.837Z,1000.27
2019-01-13T02:54:45.348Z,1000.27
2019-01-13T02:55:49.844Z,1000.28
2019-01-13T02:56:55.359Z,1000.33
2019-01-13T02:58:00.857Z,1000.37
2019-01-13T02:59:06.373Z,1000.41
2019-01-13T03:00:11.881Z,1000.40
2019-01-13T03:01:18.399Z,1000.48
2019-01-13T03:02:22.898Z,1000.50
2019-01-13T03:03:28.415Z,1000.41
2019-01-13T03:04:33.914Z,1000.51
2019-01-13T03:05:39.423Z,1000.50
2019-01-13T03:06:44.938Z,1000.53
2019-01-13T03:07:51.456Z,1000.56
2019-01-13T03:08:55.944Z,1000.53
2019-01-13T03:10:01.458Z,1000.54
2019-01-13T03:11:06.967Z,1000.54
2019-01-13T03:12:12.476Z,1000.51
2019-01-13T03:13:17.990Z,1000.54
2019-01-13T03:14:24.505Z,1000.59
2019-01-13T03:15:29.006Z,1000.57
2019-01-13T03:16:34.521Z,1000.60
2019-01-13T03:17:40.020Z,1000.63
2019-01-13T03:18:45.533Z,1000.57
2019-01-13T03:19:51.037Z,1000.49
2019-01-13T03:20:57.559Z,1000.43
2019-01-13T03:22:02.057Z,1000.38
2019-01-13T03:23:07.566Z,1000.33
2019-01-13T03:24:13.068Z,1000.36
2019-01-13T03:25:18.578Z,1000.33
2019-01-13T03:26:24.089Z,1000.27
2019-01-13T03:27:30.608Z,1000.32
2019-01-13T03:28:35.123Z,1000.30
2019-01-13T03:29:40.613Z,1000.28
2019-01-13T03:30:46.124Z,1000.27
2019-01-13T03:31:51.639Z,1000.24
2019-01-13T03:32:57.146Z,1000.22
2019-01-13T03:34:03.665Z,1000.21
2019-01-13T03:35:08.161Z,1000.22
2019-01-13T03:36:13.671Z,1000.17
2019-01-13T03:37:19.184Z,1000.09
2019-01-13T03:38:24.689Z,1000.05
2019-01-13T03:39:30.195Z,1000.00
2019-01-13T03:40:36.720Z,999.95
2019-01-13T03:41:41.213Z,999.95
2019-01-13T03:42:46.748Z,999.97
2019-01-13T03:43:52.237Z,999.92
2019-01-13T03:44:57.748Z,999.91
2019-01-13T03:46:03.253Z,999.88
2019-01-13T03:47:09.767Z,999.80
2019-01-13T03:48:14.266Z,999.78
2019-01-13T03:49:19.773Z,999.75
2019-01-13T03:50:25.281Z,999.74
2019-01-13T03:51:30.805Z,999.70
2019-01-13T03:52:36.306Z,999.65
2019-01-13T03:53:42.820Z,999.70
2019-01-13T03:54:47.318Z,999.69
2019-01-13T03:55:52.829Z,999.61
2019-01-13T03:56:58.338Z,999.62
2019-01-13T03:58:03.847Z,999.61
2019-01-13T03:59:09.358Z,999.58
2019-01-13T04:00:15.874Z,999.51
2019-01-13T04:01:20.372Z,999.51
2019-01-13T04:02:25.894Z,999.53
2019-01-13T04:03:31.389Z,999.49
2019-01-13T04:04:36.894Z,999.43
2019-01-13T04:05:42.405Z,999.41
2019-01-13T04:06:48.925Z,999.42
2019-01-13T04:07:53.428Z,999.38
2019-01-13T04:08:58.936Z,999.44
2019-01-13T04:10:04.445Z,999.41
2019-01-13T04:11:09.950Z,999.40
2019-01-13T04:12:15.456Z,999.38
2019-01-13T04:13:21.987Z,999.44
2019-01-13T04:14:26.478Z,999.37
2019-01-13T04:15:31.990Z,999.36
2019-01-13T04:16:37.500Z,999.35
2019-01-13T04:17:43.010Z,999.30
2019-01-13T04:18:48.518Z,999.30
2019-01-13T04:19:55.029Z,999.28
2019-01-13T04:20:59.528Z,999.26
2019-01-13T04:22:05.042Z,999.31
2019-01-13T04:23:10.554Z,999.33
2019-01-13T04:24:16.067Z,999.36
2019-01-13T04:25:21.566Z,999.37
2019-01-13T04:26:28.084Z,999.35
2019-01-13T04:27:32.583Z,999.37
2019-01-13T04:28:38.090Z,999.31
2019-01-13T04:29:43.601Z,999.27
2019-01-13T04:30:49.109Z,999.24
2019-01-13T04:31:54.617Z,999.15
2019-01-13T04:33:01.140Z,999.14
2019-01-13T04:34:05.635Z,999.02
2019-01-13T04:35:11.147Z,999.03
2019-01-13T04:36:16.655Z,999.01
2019-01-13T04:37:22.162Z,998.96
2019-01-13T04:38:27.677Z,998.89
2019-01-13T04:39:34.194Z,998.85
2019-01-13T04:40:38.690Z,998.87
2019-01-13T04:41:44.199Z,998.75
2019-01-13T04:42:49.707Z,998.77
2019-01-13T04:43:55.216Z,998.73
2019-01-13T04:45:00.724Z,998.72
2019-01-13T04:46:07.248Z,998.62
2019-01-13T04:47:11.745Z,998.66
2019-01-13T04:48:17.268Z,998.56
2019-01-13T04:49:22.782Z,998.57
2019-01-13T04:50:28.265Z,998.49
2019-01-13T04:51:33.778Z,998.53
2019-01-13T04:52:40.304Z,998.50
2019-01-13T04:53:44.795Z,998.58
2019-01-13T04:54:50.302Z,998.50
2019-01-13T04:55:55.810Z,998.45
2019-01-13T04:57:01.329Z,998.42
2019-01-13T04:58:06.836Z,998.42
2019-01-13T04:59:13.355Z,998.43
2019-01-13T05:00:17.847Z,998.39
2019-01-13T05:01:23.356Z,998.36
2019-01-13T05:02:28.869Z,998.26
2019-01-13T05:03:34.377Z,998.19
2019-01-13T05:04:39.897Z,998.23
2019-01-13T05:05:46.407Z,998.20
2019-01-13T05:06:50.903Z,998.19
2019-01-13T05:07:56.412Z,998.18
2019-01-13T05:09:01.925Z,998.17
2019-01-13T05:10:07.430Z,998.19
2019-01-13T05:11:12.938Z,998.16
2019-01-13T05:12:19.469Z,998.22
2019-01-13T05:13:23.961Z,998.21
2019-01-13T05:14:29.466Z,998.21
2019-01-13T05:15:34.970Z,998.12
2019-01-13T05:16:40.481Z,998.15
2019-01-13T05:17:45.996Z,998.14
2019-01-13T05:18:52.512Z,998.05
2019-01-13T05:19:57.007Z,998.02
2019-01-13T05:21:02.530Z,998.02
2019-01-13T05:22:08.032Z,998.01
2019-01-13T05:23:13.535Z,998.01
2019-01-13T05:24:19.048Z,997.99
2019-01-13T05:25:25.562Z,997.98
2019-01-13T05:26:30.061Z,997.97
2019-01-13T05:27:35.577Z,997.95
2019-01-13T05:28:41.086Z,997.93
2019-01-13T05:29:46.597Z,997.91
2019-01-13T05:30:52.135Z,997.83
2019-01-13T05:31:58.621Z,997.81
2019-01-13T05:33:03.129Z,997.81
2019-01-13T05:34:08.632Z,997.73
2019-01-13T05:35:14.130Z,997.74
2019-01-13T05:36:19.644Z,997.66
2019-01-13T05:37:25.153Z,997.67
2019-01-13T05:38:31.744Z,997.68
2019-01-13T05:39:36.171Z,997.70
2019-01-13T05:40:41.678Z,997.72
2019-01-13T05:41:47.187Z,997.78
2019-01-13T05:42:52.706Z,997.74
2019-01-13T05:43:58.218Z,997.69
2019-01-13T05:45:04.726Z,997.67
2019-01-13T05:46:09.224Z,997.72
2019-01-13T05:47:14.738Z,997.69
2019-01-13T05:48:20.245Z,997.69
2019-01-13T05:49:25.747Z,997.65
2019-01-13T05:50:31.257Z,997.63
2019-01-13T05:51:37.776Z,997.63
2019-01-13T05:52:42.287Z,997.58
2019-01-13T05:53:47.784Z,997.59
2019-01-13T05:54:53.298Z,997.64
2019-01-13T05:55:58.813Z,997.63
2019-01-13T05:57:04.330Z,997.63
2019-01-13T05:58:10.838Z,997.64
2019-01-13T05:59:15.332Z,997.60
2019-01-13T06:00:20.836Z,997.55
2019-01-13T06:01:26.347Z,997.55
2019-01-13T06:02:31.859Z,997.64
2019-01-13T06:03:37.365Z,997.58
2019-01-13T06:04:43.886Z,997.67
2019-01-13T06:05:48.386Z,997.63
2019-01-13T06:06:53.888Z,997.68
2019-01-13T06:07:59.401Z,997.64
2019-01-13T06:09:04.911Z,997.71
2019-01-13T06:10:10.421Z,997.64
2019-01-13T06:11:16.939Z,997.66
2019-01-13T06:12:21.439Z,997.68
2019-01-13T06:13:26.945Z,997.62
2019-01-13T06:14:32.462Z,997.58
2019-01-13T06:15:37.961Z,997.56
2019-01-13T06:16:43.472Z,997.58
2019-01-13T06:17:49.999Z,997.59
2019-01-13T06:18:54.491Z,997.50
2019-01-13T06:20:00.002Z,997.49
2019-01-13T06:21:05.512Z,997.50
2019-01-13T06:22:11.022Z,997.47
2019-01-13T06:23:16.524Z,997.50
2019-01-13T06:24:23.049Z,997.49
2019-01-13T06:25:27.545Z,997.47
2019-01-13T06:26:33.060Z,997.46
2019-01-13T06:27:38.561Z,997.44
2019-01-13T06:28:44.072Z,997.36
2019-01-13T06:29:49.578Z,997.41
2019-01-13T06:30:56.101Z,997.32
2019-01-13T06:32:00.599Z,997.37
2019-01-13T06:33:06.118Z,997.36
2019-01-13T06:34:11.623Z,997.35
2019-01-13T06:35:17.122Z,997.31
2019-01-13T06:36:22.636Z,997.29
2019-01-13T06:37:29.151Z,997.24
2019-01-13T06:38:33.652Z,997.25
2019-01-13T06:39:39.163Z,997.22
2019-01-13T06:40:44.667Z,997.15
2019-01-13T06:41:50.186Z,997.16
2019-01-13T06:42:55.692Z,997.13
2019-01-13T06:44:02.205Z,997.11
2019-01-13T06:45:06.702Z,997.12
2019-01-13T06:46:12.214Z,997.07
2019-01-13T06:47:17.721Z,997.09
2019-01-13T06:48:23.232Z,997.09
2019-01-13T06:49:28.740Z,997.08
2019-01-13T06:50:35.259Z,997.07
2019-01-13T06:51:39.762Z,997.11
2019-01-13T06:52:45.268Z,997.13
2019-01-13T06:53:50.787Z,997.05
2019-01-13T06:54:56.288Z,997.04
2019-01-13T06:56:01.796Z,997.09
2019-01-13T06:57:08.315Z,997.00
2019-01-13T06:58:12.811Z,997.02
2019-01-13T06:59:18.319Z,997.02
2019-01-13T07:00:23.830Z,996.99
2019-01-13T07:01:29.347Z,997.01
2019-01-13T07:02:34.845Z,996.98
2019-01-13T07:03:41.366Z,996.94
2019-01-13T07:04:45.863Z,996.91
2019-01-13T07:05:51.370Z,996.97
2019-01-13T07:06:56.889Z,996.87
2019-01-13T07:08:02.394Z,996.89
2019-01-13T07:09:07.901Z,996.84
2019-01-13T07:10:14.430Z,996.82
2019-01-13T07:11:18.923Z,996.86
2019-01-13T07:12:24.422Z,996.84
2019-01-13T07:13:29.938Z,996.84
2019-01-13T07:14:35.445Z,996.77
2019-01-13T07:15:40.955Z,996.72
2019-01-13T07:16:47.480Z,996.74
2019-01-13T07:17:51.971Z,996.74
2019-01-13T07:18:57.488Z,996.66
2019-01-13T07:20:02.997Z,996.71
2019-01-13T07:21:08.505Z,996.66
2019-01-13T07:22:14.008Z,996.65
2019-01-13T07:23:20.537Z,996.63
2019-01-13T07:24:25.026Z,996.66
2019-01-13T07:25:30.532Z,996.59
2019-01-13T07:26:36.040Z,996.61
2019-01-13T07:27:41.551Z,996.54
2019-01-13T07:28:47.064Z,996.53
2019-01-13T07:29:53.579Z,996.53
2019-01-13T07:30:58.078Z,996.53
2019-01-13T07:32:10.631Z,996.52
2019-01-13T07:33:09.093Z,996.51
2019-01-13T07:34:14.606Z,996.47
2019-01-13T07:35:20.114Z,996.42
2019-01-13T07:36:26.633Z,996.47
2019-01-13T07:37:31.133Z,996.44
2019-01-13T07:38:36.646Z,996.40
2019-01-13T07:39:42.154Z,996.42
2019-01-13T07:40:47.661Z,996.36
2019-01-13T07:41:53.163Z,996.32
2019-01-13T07:42:59.688Z,996.28
2019-01-13T07:44:04.188Z,996.32
2019-01-13T07:45:09.697Z,996.32
2019-01-13T07:46:15.204Z,996.30
2019-01-13T07:47:20.711Z,996.36
2019-01-13T07:48:26.225Z,996.34
2019-01-13T07:49:32.752Z,996.36
2019-01-13T07:50:37.240Z,996.38
2019-01-13T07:51:42.752Z,996.36
2019-01-13T07:52:48.260Z,996.40
2019-01-13T07:53:53.760Z,996.39
2019-01-13T07:54:59.280Z,996.37
2019-01-13T07:56:05.811Z,996.33
2019-01-13T07:57:10.298Z,996.39
2019-01-13T07:58:15.804Z,996.30
2019-01-13T07:59:21.316Z,996.27
2019-01-13T08:00:26.821Z,996.27
2019-01-13T08:01:32.336Z,996.24
2019-01-13T08:02:38.849Z,996.18
2019-01-13T08:03:43.384Z,996.13
2019-01-13T08:04:48.855Z,996.19
2019-01-13T08:05:54.370Z,996.16
2019-01-13T08:06:59.880Z,996.18
2019-01-13T08:08:05.387Z,996.16
2019-01-13T08:09:11.909Z,996.09
2019-01-13T08:10:16.406Z,996.09
2019-01-13T08:11:21.919Z,996.08
2019-01-13T08:12:27.425Z,996.06
2019-01-13T08:13:32.933Z,996.04
2019-01-13T08:14:38.444Z,995.99
2019-01-13T08:15:44.962Z,995.99
2019-01-13T08:16:49.476Z,995.95
2019-01-13T08:17:54.969Z,995.93
2019-01-13T08:19:00.483Z,995.90
2019-01-13T08:20:05.989Z,995.98
2019-01-13T08:21:11.498Z,995.92
2019-01-13T08:22:18.030Z,996.00
2019-01-13T08:23:22.523Z,995.98
2019-01-13T08:24:29.103Z,996.01
2019-01-13T08:25:33.538Z,996.02
2019-01-13T08:26:39.045Z,995.99
2019-01-13T08:27:44.557Z,995.93
2019-01-13T08:28:51.081Z,995.95
2019-01-13T08:29:55.578Z,995.95
2019-01-13T08:31:01.091Z,995.90
2019-01-13T08:32:06.603Z,995.94
2019-01-13T08:33:12.102Z,995.92
2019-01-13T08:34:17.610Z,995.94
2019-01-13T08:35:24.135Z,995.99
2019-01-13T08:36:28.633Z,995.94
2019-01-13T08:37:34.138Z,995.91
2019-01-13T08:38:39.653Z,995.92
2019-01-13T08:39:45.158Z,995.94
2019-01-13T08:40:50.669Z,995.91
2019-01-13T08:41:57.219Z,995.84
2019-01-13T08:43:01.685Z,995.80
2019-01-13T08:44:07.205Z,995.84
2019-01-13T08:45:12.715Z,995.75
2019-01-13T08:46:18.215Z,995.77
2019-01-13T08:47:23.725Z,995.68
2019-01-13T08:48:30.249Z,995.77
2019-01-13T08:49:34.743Z,995.76
2019-01-13T08:50:40.253Z,995.73
2019-01-13T08:51:45.763Z,995.81
2019-01-13T08:52:51.275Z,995.85
2019-01-13T08:53:56.780Z,995.72
2019-01-13T08:55:03.317Z,995.70
2019-01-13T08:56:07.803Z,995.69
2019-01-13T08:57:14.610Z,995.71
2019-01-13T08:58:18.829Z,995.73
2019-01-13T08:59:24.325Z,995.69
2019-01-13T09:00:29.834Z,995.64
2019-01-13T09:01:36.359Z,995.68
2019-01-13T09:02:40.857Z,995.64
2019-01-13T09:03:46.367Z,995.59
2019-01-13T09:04:51.877Z,995.59
2019-01-13T09:05:57.384Z,995.53
2019-01-13T09:07:02.896Z,995.46
2019-01-13T09:08:09.420Z,995.51
2019-01-13T09:09:13.913Z,995.46
2019-01-13T09:10:19.427Z,995.44
2019-01-13T09:11:24.933Z,995.43
2019-01-13T09:12:30.439Z,995.50
2019-01-13T09:13:35.951Z,995.41
2019-01-13T09:14:42.470Z,995.45
2019-01-13T09:15:46.997Z,995.44
2019-01-13T09:16:52.477Z,995.47
2019-01-13T09:17:57.989Z,995.49
2019-01-13T09:19:03.504Z,995.47
2019-01-13T09:20:09.002Z,995.40
2019-01-13T09:21:15.527Z,995.43
2019-01-13T09:22:20.062Z,995.37
2019-01-13T09:23:25.537Z,995.36
2019-01-13T09:24:31.056Z,995.24
2019-01-13T09:25:36.557Z,995.24
2019-01-13T09:26:42.062Z,995.30
2019-01-13T09:27:48.593Z,995.35
2019-01-13T09:28:53.083Z,995.35
2019-01-13T09:29:58.595Z,995.37
2019-01-13T09:31:04.104Z,995.34
2019-01-13T09:32:09.622Z,995.33
2019-01-13T09:33:15.124Z,995.37
2019-01-13T09:34:21.642Z,995.38
2019-01-13T09:35:26.141Z,995.38
2019-01-13T09:36:31.648Z,995.27
2019-01-13T09:37:37.158Z,995.34
2019-01-13T09:38:42.678Z,995.27
2019-01-13T09:39:48.175Z,995.33
2019-01-13T09:40:54.711Z,995.29
2019-01-13T09:41:59.202Z,995.13
2019-01-13T09:43:04.707Z,995.18
2019-01-13T09:44:10.227Z,995.11
2019-01-13T09:45:15.731Z,995.04
2019-01-13T09:46:21.243Z,995.04
2019-01-13T09:47:27.759Z,995.03
2019-01-13T09:48:32.259Z,995.03
2019-01-13T09:49:37.772Z,995.02
2019-01-13T09:50:43.280Z,994.99
2019-01-13T09:51:48.797Z,995.02
2019-01-13T09:52:54.296Z,995.05
2019-01-13T09:54:00.815Z,995.07
2019-01-13T09:55:05.315Z,994.96
2019-01-13T09:56:10.828Z,994.87
2019-01-13T09:57:16.333Z,994.92
2019-01-13T09:58:21.845Z,994.94
2019-01-13T09:59:27.362Z,994.94
2019-01-13T10:00:33.880Z,994.80
2019-01-13T10:01:38.374Z,994.81
2019-01-13T10:02:46.884Z,994.75
2019-01-13T10:03:49.403Z,994.74
2019-01-13T10:04:54.896Z,994.81
2019-01-13T10:06:00.413Z,994.93
2019-01-13T10:07:06.930Z,994.89
2019-01-13T10:08:11.432Z,994.97
2019-01-13T10:09:16.939Z,995.01
2019-01-13T10:10:22.449Z,994.94
2019-01-13T10:11:27.963Z,994.89
2019-01-13T10:12:33.470Z,994.86
2019-01-13T10:13:39.988Z,994.91
2019-01-13T10:14:44.495Z,994.92
2019-01-13T10:15:50.000Z,994.93
2019-01-13T10:16:55.509Z,994.90
2019-01-13T10:18:01.017Z,994.92
2019-01-13T10:19:06.534Z,994.92
2019-01-13T10:20:13.044Z,994.85
2019-01-13T10:21:17.542Z,994.91
2019-01-13T10:22:23.058Z,994.90
2019-01-13T10:23:28.562Z,994.84
2019-01-13T10:24:34.082Z,994.83
2019-01-13T10:25:39.581Z,994.73
2019-01-13T10:26:47.128Z,994.73
2019-01-13T10:27:50.602Z,994.68
2019-01-13T10:28:56.116Z,994.75
2019-01-13T10:30:01.623Z,994.75
2019-01-13T10:31:07.131Z,994.71
2019-01-13T10:32:12.646Z,994.62
2019-01-13T10:33:19.163Z,994.61
2019-01-13T10:34:23.671Z,994.54
2019-01-13T10:35:29.167Z,994.48
2019-01-13T10:36:34.689Z,994.49
2019-01-13T10:37:40.225Z,994.44
2019-01-13T10:38:45.697Z,994.43
2019-01-13T10:39:52.216Z,994.53
2019-01-13T10:40:56.716Z,994.55
2019-01-13T10:42:02.228Z,994.57
2019-01-13T10:43:07.738Z,994.48
2019-01-13T10:44:13.245Z,994.47
2019-01-13T10:45:18.755Z,994.56
2019-01-13T10:46:25.277Z,994.63
2019-01-13T10:47:29.829Z,994.50
2019-01-13T10:48:35.298Z,994.48
2019-01-13T10:49:40.807Z,994.39
2019-01-13T10:50:46.301Z,994.37
2019-01-13T10:51:51.813Z,994.31
2019-01-13T10:52:58.332Z,994.30
2019-01-13T10:54:09.074Z,994.20
2019-01-13T10:55:08.351Z,994.24
2019-01-13T10:56:13.850Z,994.24
2019-01-13T10:57:19.362Z,994.18
2019-01-13T10:58:24.875Z,994.18
2019-01-13T10:59:31.393Z,994.17
2019-01-13T11:00:35.891Z,994.13
2019-01-13T11:01:41.398Z,994.11
2019-01-13T11:02:46.909Z,994.10
2019-01-13T11:03:52.423Z,993.94
2019-01-13T11:04:57.927Z,994.04
2019-01-13T11:06:04.454Z,994.07
2019-01-13T11:07:08.951Z,994.06
2019-01-13T11:08:18.307Z,994.04
2019-01-13T11:09:20.489Z,993.98
2019-01-13T11:10:25.680Z,993.93
2019-01-13T11:11:31.257Z,993.92
2019-01-13T11:12:37.838Z,993.92
2019-01-13T11:13:42.412Z,993.91
2019-01-13T11:14:47.772Z,993.91
2019-01-13T11:15:53.036Z,993.89
2019-01-13T11:16:58.538Z,993.89
2019-01-13T11:18:04.041Z,993.90
2019-01-13T11:19:10.688Z,993.85
2019-01-13T11:20:15.205Z,993.77
2019-01-13T11:21:20.580Z,993.82
2019-01-13T11:22:26.162Z,993.86
2019-01-13T11:23:31.758Z,993.82
2019-01-13T11:24:37.184Z,993.84
2019-01-13T11:25:43.752Z,993.79
2019-01-13T11:26:48.215Z,993.79
2019-01-13T11:27:53.678Z,993.75
2019-01-13T11:28:59.200Z,993.73
2019-01-13T11:30:04.651Z,993.73
2019-01-13T11:31:10.259Z,993.79
2019-01-13T11:32:16.685Z,993.75
2019-01-13T11:33:21.173Z,993.68
2019-01-13T11:34:26.682Z,993.63
2019-01-13T11:35:32.198Z,993.68
2019-01-13T11:36:37.718Z,993.65
2019-01-13T11:37:43.220Z,993.61
2019-01-13T11:38:49.736Z,993.56
2019-01-13T11:39:54.247Z,993.62
2019-01-13T11:40:59.750Z,993.46
2019-01-13T11:42:05.363Z,993.56
2019-01-13T11:43:11.315Z,993.52
2019-01-13T11:44:16.434Z,993.51
2019-01-13T11:45:22.863Z,993.56
2019-01-13T11:46:27.398Z,993.41
2019-01-13T11:47:32.907Z,993.45
2019-01-13T11:48:38.435Z,993.43
2019-01-13T11:49:43.901Z,993.41
2019-01-13T11:50:49.410Z,993.43
2019-01-13T11:51:55.930Z,993.38
2019-01-13T11:53:00.431Z,993.39
2019-01-13T11:54:05.938Z,993.34
2019-01-13T11:55:11.502Z,993.32
2019-01-13T11:56:16.894Z,993.23
2019-01-13T11:57:22.390Z,993.27
2019-01-13T11:58:28.920Z,993.14
2019-01-13T11:59:33.414Z,993.09
2019-01-13T12:00:38.923Z,993.12
2019-01-13T12:01:44.438Z,993.05
2019-01-13T12:02:49.943Z,993.05
2019-01-13T12:03:55.448Z,993.05
2019-01-13T12:05:01.970Z,992.97
2019-01-13T12:06:06.464Z,993.04
2019-01-13T12:07:12.126Z,992.99
2019-01-13T12:08:17.642Z,992.99
2019-01-13T12:09:22.999Z,992.93
2019-01-13T12:10:28.507Z,992.92
2019-01-13T12:11:35.033Z,992.92
2019-01-13T12:12:39.748Z,992.89
2019-01-13T12:13:45.052Z,992.95
2019-01-13T12:14:50.832Z,992.96
2019-01-13T12:15:56.061Z,992.85
2019-01-13T12:17:01.588Z,992.84
2019-01-13T12:18:08.115Z,992.90
2019-01-13T12:19:12.600Z,992.72
2019-01-13T12:20:18.090Z,992.85
2019-01-13T12:21:23.602Z,992.94
2019-01-13T12:22:29.107Z,992.88
2019-01-13T12:23:34.624Z,992.82
2019-01-13T12:24:41.146Z,992.80
2019-01-13T12:25:52.344Z,992.78
2019-01-13T12:26:51.153Z,992.80
2019-01-13T12:27:56.717Z,992.75
2019-01-13T12:29:02.177Z,992.75
2019-01-13T12:30:07.843Z,992.72
2019-01-13T12:31:14.366Z,992.72
2019-01-13T12:32:18.773Z,992.67
2019-01-13T12:33:24.720Z,992.65
2019-01-13T12:34:29.746Z,992.67
2019-01-13T12:35:35.229Z,992.68
2019-01-13T12:36:41.449Z,992.77
2019-01-13T12:37:47.276Z,992.70
2019-01-13T12:38:51.802Z,992.64
2019-01-13T12:39:57.265Z,992.57
2019-01-13T12:41:02.799Z,992.65
2019-01-13T12:42:08.291Z,992.59
2019-01-13T12:43:13.792Z,992.62
2019-01-13T12:44:20.322Z,992.58
2019-01-13T12:45:24.815Z,992.63
2019-01-13T12:46:30.342Z,992.60
2019-01-13T12:47:35.836Z,992.59
2019-01-13T12:48:41.341Z,992.58
2019-01-13T12:49:46.861Z,992.60
2019-01-13T12:50:53.373Z,992.59
2019-01-13T12:51:57.875Z,992.55
2019-01-13T12:53:03.377Z,992.50
2019-01-13T12:54:08.891Z,992.43
2019-01-13T12:55:14.396Z,992.42
2019-01-13T12:56:19.932Z,992.48
2019-01-13T12:57:26.428Z,992.38
2019-01-13T12:58:30.930Z,992.29
2019-01-13T12:59:36.447Z,992.42
2019-01-13T13:00:41.945Z,992.34
2019-01-13T13:01:47.457Z,992.38
2019-01-13T13:02:52.973Z,992.40
2019-01-13T13:03:59.485Z,992.44
2019-01-13T13:05:03.988Z,992.30
2019-01-13T13:06:09.502Z,992.32
2019-01-13T13:07:15.040Z,992.30
2019-01-13T13:08:20.530Z,992.22
2019-01-13T13:09:26.021Z,992.27
2019-01-13T13:10:32.550Z,992.18
2019-01-13T13:11:37.049Z,992.10
2019-01-13T13:12:42.556Z,992.04
2019-01-13T13:13:48.059Z,992.00
2019-01-13T13:14:53.576Z,991.99
2019-01-13T13:15:59.081Z,991.98
2019-01-13T13:17:05.598Z,991.92
2019-01-13T13:18:10.106Z,991.96
2019-01-13T13:19:15.616Z,991.98
2019-01-13T13:20:21.120Z,991.94
2019-01-13T13:21:26.631Z,991.87
2019-01-13T13:22:32.141Z,991.76
2019-01-13T13:23:38.656Z,991.84
2019-01-13T13:24:43.160Z,991.87
2019-01-13T13:25:48.662Z,991.94
2019-01-13T13:26:54.176Z,991.91
2019-01-13T13:27:59.692Z,991.92
2019-01-13T13:29:05.195Z,991.80
2019-01-13T13:30:11.717Z,991.74